Time;durP1;ratioP1;P1;durP2;ratioP2;P2;SDS_P1;SDS_P2;PMS_P1;PMS_P2;Temp;Humidity;BMP_temperature;BMP_pressure;BME280_temperature;BME280_humidity;BME280_pressure;Samples;Min_cycle;Max_cycle;Signal;HPM_P1;HPM_P2
2022/11/25 00:01:32;;;;;;;0.82;0.40;;;8.60;90.10;;;;;;4950510;28;20090;-80
2022/11/25 00:03:58;;;;;;;0.45;0.30;;;8.60;90.10;;;;;;4954337;28;20110;-80
2022/11/25 00:06:28;;;;;;;0.32;0.32;;;8.60;90.10;;;;;;4954519;28;20487;-79
2022/11/25 00:08:56;;;;;;;1.10;0.47;;;8.60;90.10;;;;;;4935749;28;20043;-80
2022/11/25 00:11:22;;;;;;;1.45;0.40;;;8.60;90.20;;;;;;4938479;28;20515;-80
2022/11/25 00:13:48;;;;;;;1.27;0.22;;;8.50;90.20;;;;;;4947819;28;20085;-80
2022/11/25 00:16:17;;;;;;;0.90;0.40;;;8.50;90.30;;;;;;4949020;28;20035;-78
2022/11/25 00:18:46;;;;;;;2.08;0.45;;;8.40;90.30;;;;;;4904856;28;20122;-79
2022/11/25 00:21:14;;;;;;;0.30;0.30;;;8.50;90.40;;;;;;4934294;28;20162;-79
2022/11/25 00:23:40;;;;;;;1.27;0.20;;;8.40;90.40;;;;;;4954452;28;20118;-79
2022/11/25 00:26:12;;;;;;;1.08;0.30;;;8.40;90.40;;;;;;4948703;28;20046;-79
2022/11/25 00:28:39;;;;;;;1.27;0.40;;;8.40;90.50;;;;;;4953190;28;20387;-79
2022/11/25 00:31:06;;;;;;;0.63;0.38;;;8.40;90.50;;;;;;4954038;28;20098;-79
2022/11/25 00:33:32;;;;;;;1.40;0.38;;;8.40;90.60;;;;;;4951921;28;20121;-79
2022/11/25 00:36:01;;;;;;;0.73;0.40;;;8.40;90.60;;;;;;4953665;28;20453;-79
2022/11/25 00:38:27;;;;;;;2.30;0.60;;;8.40;90.60;;;;;;4949237;28;20042;-79
2022/11/25 00:44:34;;;;;;;0.52;0.30;;;8.30;90.60;;;;;;4953067;28;20027;-79
2022/11/25 00:46:18;;;;;;;0.35;0.25;;;8.30;90.70;;;;;;4951176;28;20062;-79
2022/11/25 00:48:44;;;;;;;0.95;0.38;;;8.30;90.70;;;;;;4954079;28;20470;-79
2022/11/25 00:51:09;;;;;;;0.30;0.30;;;8.30;90.80;;;;;;4949036;28;20050;-79
2022/11/25 00:53:35;;;;;;;1.55;0.57;;;8.20;90.80;;;;;;4938236;28;20382;-79
2022/11/25 00:58:40;;;;;;;0.70;0.40;;;8.30;90.80;;;;;;4953982;28;20035;-79
2022/11/25 01:01:06;;;;;;;0.30;0.30;;;8.20;90.80;;;;;;4953984;28;20040;-79
2022/11/25 01:03:32;;;;;;;1.23;0.45;;;8.20;90.90;;;;;;4953987;28;20035;-79
2022/11/25 01:06:01;;;;;;;0.30;0.30;;;8.30;90.90;;;;;;4935386;28;20512;-79
2022/11/25 01:08:29;;;;;;;0.82;0.40;;;8.20;90.90;;;;;;4919360;28;20143;-78
2022/11/25 01:10:59;;;;;;;0.93;0.40;;;8.20;90.90;;;;;;4951289;28;20374;-78
2022/11/25 01:13:25;;;;;;;2.10;0.40;;;8.20;90.90;;;;;;4951185;28;20108;-78
2022/11/25 01:15:50;;;;;;;2.13;0.35;;;8.30;91.00;;;;;;4953610;28;20382;-79
2022/11/25 01:18:16;;;;;;;2.03;0.45;;;8.30;90.90;;;;;;4954515;28;20118;-78
2022/11/25 01:20:41;;;;;;;0.88;0.28;;;8.20;90.90;;;;;;4955654;28;20095;-78
2022/11/25 01:23:07;;;;;;;0.90;0.35;;;8.20;90.90;;;;;;4951298;28;20049;-79
2022/11/25 01:25:36;;;;;;;0.65;0.32;;;8.20;90.90;;;;;;4954391;28;20035;-78
2022/11/25 01:28:01;;;;;;;0.38;0.28;;;8.20;90.90;;;;;;4952847;28;20122;-79
2022/11/25 01:30:27;;;;;;;0.75;0.30;;;8.20;91.00;;;;;;4954757;28;20415;-78
2022/11/25 01:32:53;;;;;;;0.50;0.40;;;8.30;91.10;;;;;;4955456;28;20486;-78
2022/11/25 01:35:18;;;;;;;1.10;0.30;;;8.20;90.90;;;;;;4937307;28;20127;-79
2022/11/25 01:37:44;;;;;;;0.45;0.38;;;8.30;91.00;;;;;;4951727;28;20069;-79
2022/11/25 01:40:10;;;;;;;1.00;0.40;;;8.20;91.00;;;;;;4954479;28;20058;-79
2022/11/25 01:42:42;;;;;;;1.52;0.38;;;8.30;91.00;;;;;;4952222;28;20035;-78
2022/11/25 01:45:32;;;;;;;0.60;0.40;;;8.20;91.00;;;;;;4956360;28;20849;-77
2022/11/25 01:48:04;;;;;;;1.10;0.30;;;8.30;91.00;;;;;;4940840;28;20047;-78
2022/11/25 01:50:32;;;;;;;1.10;0.30;;;8.30;91.00;;;;;;4940100;28;20039;-78
2022/11/25 01:52:59;;;;;;;0.30;0.30;;;8.30;91.00;;;;;;4954910;28;20054;-78
2022/11/25 01:55:29;;;;;;;0.93;0.40;;;8.40;91.00;;;;;;4953770;28;20043;-79
2022/11/25 01:58:01;;;;;;;0.68;0.28;;;8.40;91.00;;;;;;4950144;28;20468;-79
2022/11/25 02:00:27;;;;;;;0.93;0.20;;;8.40;91.00;;;;;;4953324;28;20039;-79
2022/11/25 02:02:54;;;;;;;1.00;0.32;;;8.40;91.30;;;;;;4938823;28;20046;-78
2022/11/25 02:05:25;;;;;;;0.38;0.38;;;8.40;91.00;;;;;;4952292;28;20038;-78
2022/11/25 02:07:52;;;;;;;0.73;0.20;;;8.40;91.00;;;;;;4948969;28;20118;-78
2022/11/25 02:10:28;;;;;;;0.52;0.25;;;8.40;91.00;;;;;;4954667;28;20474;-78
2022/11/25 02:12:54;;;;;;;0.77;0.30;;;8.40;91.00;;;;;;4936310;28;20046;-78
2022/11/25 02:15:21;;;;;;;0.88;0.50;;;8.40;91.00;;;;;;4933662;28;20051;-78
2022/11/25 02:17:47;;;;;;;0.63;0.28;;;8.40;91.00;;;;;;4950586;28;20363;-78
2022/11/25 02:20:19;;;;;;;0.57;0.30;;;8.50;91.00;;;;;;4953637;28;20036;-78
2022/11/25 02:23:16;;;;;;;0.60;0.30;;;8.50;91.00;;;;;;4953853;28;20074;-78
2022/11/25 02:25:43;;;;;;;0.63;0.30;;;8.50;91.00;;;;;;4953517;28;20039;-78
2022/11/25 02:28:13;;;;;;;0.70;0.30;;;8.50;91.00;;;;;;4953625;28;20401;-78
2022/11/25 02:30:39;;;;;;;0.88;0.30;;;8.50;91.00;;;;;;4973471;28;20046;-78
2022/11/25 02:33:05;;;;;;;0.75;0.50;;;8.60;91.10;;;;;;4956633;28;20047;-78
2022/11/25 02:35:35;;;;;;;1.17;0.43;;;8.50;91.00;;;;;;4957613;28;20373;-78
2022/11/25 02:38:09;;;;;;;1.23;0.32;;;8.50;91.00;;;;;;4955927;28;20042;-78
2022/11/25 02:40:44;;;;;;;1.67;0.57;;;8.50;91.10;;;;;;4955611;28;20094;-79
2022/11/25 02:43:10;;;;;;;0.47;0.30;;;8.50;91.00;;;;;;4956055;28;20024;-78
2022/11/25 02:45:49;;;;;;;1.02;0.40;;;8.50;91.00;;;;;;4952712;28;20573;-78
2022/11/25 02:48:14;;;;;;;1.23;0.40;;;8.60;91.10;;;;;;4956755;28;20039;-78
2022/11/25 02:50:41;;;;;;;0.73;0.40;;;8.60;91.00;;;;;;4956961;28;20058;-78
2022/11/25 02:53:07;;;;;;;1.35;0.35;;;8.60;91.00;;;;;;4952225;28;20051;-78
2022/11/25 02:55:33;;;;;;;0.75;0.43;;;8.60;91.00;;;;;;4956861;28;20051;-78
2022/11/25 02:57:58;;;;;;;1.20;0.40;;;8.70;91.00;;;;;;4935666;28;20489;-78
2022/11/25 03:00:24;;;;;;;0.75;0.50;;;8.60;91.00;;;;;;4954357;28;20035;-78
2022/11/25 03:02:52;;;;;;;0.65;0.45;;;8.60;91.00;;;;;;4956595;28;20031;-78
2022/11/25 03:05:18;;;;;;;2.28;0.45;;;8.80;91.00;;;;;;4955936;28;20043;-78
2022/11/25 03:07:43;;;;;;;0.93;0.40;;;8.80;91.00;;;;;;4957698;28;20039;-78
2022/11/25 03:10:09;;;;;;;0.82;0.40;;;8.80;91.00;;;;;;4941814;28;20043;-78
2022/11/25 03:12:35;;;;;;;1.00;0.45;;;8.80;90.90;;;;;;4955649;28;20043;-79
2022/11/25 03:15:00;;;;;;;0.95;0.40;;;8.80;90.90;;;;;;4957294;28;20040;-78
2022/11/25 03:17:26;;;;;;;0.93;0.70;;;8.90;90.90;;;;;;4942156;28;20032;-78
2022/11/25 03:19:51;;;;;;;2.05;0.50;;;8.90;90.90;;;;;;4954442;28;20093;-78
2022/11/25 03:22:17;;;;;;;1.80;0.57;;;8.90;90.90;;;;;;4957378;28;20371;-78
2022/11/25 03:24:43;;;;;;;0.93;0.52;;;9.00;90.90;;;;;;4927483;28;20123;-78
2022/11/25 03:27:09;;;;;;;1.80;0.50;;;9.00;90.80;;;;;;4958370;28;20083;-78
2022/11/25 03:29:34;;;;;;;0.98;0.40;;;9.00;90.80;;;;;;4958734;28;20038;-78
2022/11/25 03:32:00;;;;;;;1.63;0.43;;;9.10;90.90;;;;;;4939884;28;20422;-78
2022/11/25 03:34:26;;;;;;;0.98;0.80;;;9.10;90.80;;;;;;4938400;28;20040;-78
2022/11/25 03:36:51;;;;;;;1.17;0.60;;;9.10;90.80;;;;;;4941400;28;20122;-77
2022/11/25 03:39:17;;;;;;;1.17;0.65;;;9.10;90.90;;;;;;4955356;28;20031;-78
2022/11/25 03:41:42;;;;;;;0.85;0.47;;;9.10;90.90;;;;;;4956285;28;20031;-78
2022/11/25 03:44:08;;;;;;;1.85;0.52;;;9.10;90.90;;;;;;4955380;28;20074;-78
2022/11/25 03:46:34;;;;;;;0.82;0.30;;;9.10;91.00;;;;;;4951305;28;20105;-78
2022/11/25 03:48:59;;;;;;;0.68;0.30;;;9.00;91.00;;;;;;4974079;28;20399;-78
2022/11/25 03:51:25;;;;;;;0.40;0.40;;;9.10;91.10;;;;;;4959336;28;20028;-78
2022/11/25 03:53:50;;;;;;;1.70;0.65;;;9.00;91.10;;;;;;4956972;28;20039;-78
2022/11/25 03:56:16;;;;;;;0.63;0.40;;;9.00;91.20;;;;;;4956832;28;20471;-78
2022/11/25 03:58:42;;;;;;;0.75;0.30;;;9.00;91.20;;;;;;4955901;28;20031;-78
2022/11/25 04:01:07;;;;;;;0.60;0.40;;;9.00;91.20;;;;;;4957092;28;20091;-78
2022/11/25 04:03:33;;;;;;;1.35;0.50;;;9.00;91.20;;;;;;4958755;28;20045;-78
2022/11/25 04:05:58;;;;;;;0.63;0.45;;;9.00;91.20;;;;;;4958128;28;20066;-78
2022/11/25 04:08:26;;;;;;;0.95;0.40;;;9.00;91.30;;;;;;4953694;28;20039;-78
2022/11/25 04:10:51;;;;;;;0.43;0.38;;;9.00;91.30;;;;;;4907976;28;20046;-78
2022/11/25 04:13:17;;;;;;;0.20;0.20;;;8.80;91.30;;;;;;4955288;28;20047;-78
2022/11/25 04:15:46;;;;;;;0.57;0.30;;;9.00;91.30;;;;;;4957721;28;20039;-78
2022/11/25 04:18:12;;;;;;;1.98;0.40;;;9.00;91.40;;;;;;4940417;28;20050;-78
2022/11/25 04:20:38;;;;;;;0.73;0.40;;;9.00;91.40;;;;;;4958495;28;20051;-78
2022/11/25 04:23:05;;;;;;;1.05;0.47;;;9.00;91.70;;;;;;4956863;28;20062;-78
2022/11/25 04:25:32;;;;;;;1.05;0.32;;;9.00;91.40;;;;;;4957977;28;20043;-78
2022/11/25 04:27:57;;;;;;;1.40;0.50;;;9.00;91.40;;;;;;4955395;28;20051;-78
2022/11/25 04:30:24;;;;;;;0.70;0.30;;;8.90;91.40;;;;;;4957301;28;20051;-78
2022/11/25 04:32:49;;;;;;;0.50;0.40;;;9.00;91.40;;;;;;4955829;28;20044;-78
2022/11/25 04:35:15;;;;;;;0.35;0.30;;;8.90;91.40;;;;;;4956383;28;20042;-78
2022/11/25 04:37:41;;;;;;;0.30;0.30;;;9.00;91.40;;;;;;4955499;28;20482;-78
2022/11/25 04:40:07;;;;;;;0.30;0.30;;;9.10;91.50;;;;;;4948929;28;20044;-78
2022/11/25 04:42:35;;;;;;;1.05;0.45;;;9.00;91.50;;;;;;4953920;28;20038;-78
2022/11/25 04:45:04;;;;;;;0.50;0.30;;;9.00;91.50;;;;;;4959236;28;20058;-77
2022/11/25 04:47:30;;;;;;;0.45;0.32;;;9.00;91.50;;;;;;4952793;28;20043;-78
2022/11/25 04:49:57;;;;;;;0.55;0.30;;;9.00;91.50;;;;;;4938109;28;20040;-78
2022/11/25 04:52:22;;;;;;;0.63;0.30;;;9.00;91.50;;;;;;4955311;28;20039;-78
2022/11/25 04:54:48;;;;;;;0.28;0.20;;;9.10;91.60;;;;;;4958012;28;20047;-78
2022/11/25 04:57:14;;;;;;;0.95;0.40;;;9.00;91.60;;;;;;4953458;28;20082;-78
2022/11/25 04:59:41;;;;;;;0.20;0.20;;;9.00;91.50;;;;;;4956948;28;20038;-77
2022/11/25 05:02:22;;;;;;;0.47;0.30;;;9.10;91.60;;;;;;4937319;28;20041;-78
2022/11/25 05:04:49;;;;;;;0.20;0.20;;;9.00;91.50;;;;;;4955144;28;20040;-78
2022/11/25 05:07:17;;;;;;;0.30;0.30;;;9.10;91.50;;;;;;4955067;28;20054;-78
2022/11/25 05:09:43;;;;;;;0.30;0.30;;;9.10;91.50;;;;;;4909431;28;20102;-78
2022/11/25 05:12:13;;;;;;;0.28;0.28;;;9.10;91.50;;;;;;4953556;28;20493;-78
2022/11/25 05:14:38;;;;;;;0.17;0.17;;;9.10;91.50;;;;;;4940842;28;20047;-78
2022/11/25 05:17:05;;;;;;;0.20;0.20;;;9.10;91.60;;;;;;4936623;28;20031;-78
2022/11/25 05:19:32;;;;;;;0.20;0.20;;;9.10;91.60;;;;;;4954603;28;20460;-78
2022/11/25 05:21:57;;;;;;;0.40;0.40;;;9.10;91.60;;;;;;4955266;28;20431;-78
2022/11/25 05:24:24;;;;;;;1.27;0.40;;;9.00;91.60;;;;;;4953314;28;20074;-79
2022/11/25 05:26:50;;;;;;;0.68;0.40;;;9.10;91.70;;;;;;4954596;28;20027;-78
2022/11/25 05:29:16;;;;;;;0.30;0.30;;;9.00;91.70;;;;;;4948023;28;20034;-78
2022/11/25 05:31:42;;;;;;;2.03;0.30;;;9.10;91.70;;;;;;4955332;28;20489;-78
2022/11/25 05:34:07;;;;;;;0.63;0.38;;;9.10;91.70;;;;;;4953281;28;20406;-78
2022/11/25 05:36:33;;;;;;;0.30;0.30;;;9.10;91.70;;;;;;4956059;28;20035;-78
2022/11/25 05:38:59;;;;;;;0.30;0.30;;;9.10;91.70;;;;;;4936677;28;20498;-78
2022/11/25 05:41:26;;;;;;;0.30;0.28;;;9.10;92.00;;;;;;4949515;28;20130;-78
2022/11/25 05:43:51;;;;;;;0.75;0.30;;;9.10;91.70;;;;;;4954555;28;20085;-78
2022/11/25 05:46:17;;;;;;;0.50;0.20;;;9.10;91.70;;;;;;4958404;28;20455;-78
2022/11/25 05:48:42;;;;;;;1.92;0.38;;;9.20;91.70;;;;;;4955771;28;20043;-78
2022/11/25 05:51:08;;;;;;;0.55;0.28;;;9.20;91.70;;;;;;4955744;28;20122;-78
2022/11/25 05:53:34;;;;;;;0.32;0.30;;;9.20;91.60;;;;;;4954580;28;20048;-78
2022/11/25 05:56:03;;;;;;;0.77;0.30;;;9.20;91.60;;;;;;4956258;28;20081;-78
2022/11/25 05:58:30;;;;;;;0.32;0.10;;;9.20;91.60;;;;;;4937515;28;20055;-78
2022/11/25 06:00:57;;;;;;;0.60;0.40;;;9.20;91.60;;;;;;4939799;28;20462;-78
2022/11/25 06:03:24;;;;;;;0.20;0.20;;;9.20;91.60;;;;;;4956308;28;20117;-78
2022/11/25 06:05:49;;;;;;;0.45;0.40;;;9.20;91.60;;;;;;4939818;28;20055;-79
2022/11/25 06:08:15;;;;;;;0.93;0.30;;;9.20;91.60;;;;;;4942717;28;20043;-79
2022/11/25 06:10:40;;;;;;;0.30;0.30;;;9.20;91.60;;;;;;4959560;28;20090;-79
2022/11/25 06:13:08;;;;;;;0.20;0.20;;;9.10;91.60;;;;;;4958778;28;20043;-79
2022/11/25 06:15:34;;;;;;;0.95;0.50;;;9.10;91.70;;;;;;4962255;28;20031;-79
2022/11/25 06:18:00;;;;;;;0.60;0.40;;;9.00;91.70;;;;;;4959897;28;20079;-79
2022/11/25 06:20:26;;;;;;;0.90;0.20;;;9.00;91.80;;;;;;4958741;28;20521;-79
2022/11/25 06:22:52;;;;;;;0.28;0.20;;;9.10;91.80;;;;;;4957168;28;20027;-79
2022/11/25 06:25:18;;;;;;;0.20;0.20;;;9.00;91.80;;;;;;4960997;28;20482;-79
2022/11/25 06:27:43;;;;;;;0.30;0.20;;;9.00;91.80;;;;;;4943912;28;20055;-79
2022/11/25 06:30:11;;;;;;;0.75;0.30;;;9.00;91.80;;;;;;4954765;28;20398;-80
2022/11/25 06:32:37;;;;;;;0.30;0.30;;;9.00;91.80;;;;;;4942038;28;20134;-79
2022/11/25 06:35:03;;;;;;;0.32;0.28;;;8.90;91.80;;;;;;4920172;28;20502;-79
2022/11/25 06:37:28;;;;;;;0.38;0.30;;;8.90;91.80;;;;;;4957891;28;20122;-79
2022/11/25 06:39:54;;;;;;;0.43;0.30;;;8.90;91.80;;;;;;4958085;28;20039;-79
2022/11/25 06:42:19;;;;;;;0.52;0.30;;;8.80;91.80;;;;;;4952214;28;20075;-79
2022/11/25 06:44:45;;;;;;;0.65;0.38;;;8.80;91.90;;;;;;4958439;28;20031;-79
2022/11/25 06:47:11;;;;;;;0.20;0.20;;;8.80;91.90;;;;;;4937387;28;20437;-79
2022/11/25 06:49:36;;;;;;;0.40;0.40;;;8.70;91.90;;;;;;4958554;28;20047;-79
2022/11/25 06:52:02;;;;;;;0.30;0.30;;;8.60;92.00;;;;;;4958273;28;20039;-79
2022/11/25 06:54:28;;;;;;;0.20;0.20;;;8.50;92.00;;;;;;4957649;28;20071;-79
2022/11/25 06:56:53;;;;;;;0.20;0.10;;;8.50;92.00;;;;;;4957667;28;20047;-79
2022/11/25 06:59:20;;;;;;;0.30;0.10;;;8.50;92.10;;;;;;4933543;28;20027;-79
2022/11/25 07:01:46;;;;;;;0.20;0.20;;;8.40;92.10;;;;;;4939231;28;20402;-79
2022/11/25 07:04:12;;;;;;;0.20;0.20;;;8.40;92.20;;;;;;4937131;28;20101;-78
2022/11/25 07:06:38;;;;;;;0.55;0.30;;;8.30;92.20;;;;;;4955290;28;20039;-78
2022/11/25 07:09:04;;;;;;;0.30;0.30;;;8.30;92.20;;;;;;4949866;28;20042;-78
2022/11/25 07:11:32;;;;;;;0.20;0.20;;;8.20;92.30;;;;;;4968800;28;20082;-78
2022/11/25 07:14:01;;;;;;;0.55;0.30;;;8.30;92.30;;;;;;4973889;28;20876;-78
2022/11/25 07:16:29;;;;;;;1.48;0.35;;;8.30;92.30;;;;;;4957665;28;20043;-77
2022/11/25 07:18:55;;;;;;;0.75;0.38;;;8.30;92.30;;;;;;4974372;28;20061;-77
2022/11/25 07:21:23;;;;;;;0.85;0.45;;;8.30;92.20;;;;;;4956839;28;20482;-78
2022/11/25 07:23:50;;;;;;;0.40;0.35;;;8.30;92.20;;;;;;4956378;28;20051;-78
2022/11/25 07:26:18;;;;;;;0.20;0.20;;;8.30;92.10;;;;;;4955080;28;20478;-78
2022/11/25 07:28:44;;;;;;;0.32;0.25;;;8.30;92.10;;;;;;4955648;28;20114;-78
2022/11/25 07:31:15;;;;;;;1.17;0.35;;;8.30;92.10;;;;;;4955522;28;20032;-78
2022/11/25 07:33:41;;;;;;;0.20;0.20;;;8.30;92.10;;;;;;4952373;28;20131;-78
2022/11/25 07:36:09;;;;;;;0.30;0.30;;;8.30;92.10;;;;;;4937661;28;20126;-78
2022/11/25 07:38:35;;;;;;;0.52;0.30;;;8.30;92.10;;;;;;4938472;28;20102;-78
2022/11/25 07:41:41;;;;;;;1.67;0.38;;;8.30;92.10;;;;;;4957030;28;20048;-77
2022/11/25 07:45:28;;;;;;;0.20;0.20;;;8.20;92.10;;;;;;4913713;29;20047;-78
2022/11/25 07:48:05;;;;;;;0.60;0.30;;;8.10;92.10;;;;;;4889619;29;20052;-78
2022/11/25 07:50:31;;;;;;;0.45;0.30;;;8.20;92.10;;;;;;4855252;29;20145;-78
2022/11/25 07:56:23;;;;;;;1.27;0.25;;;8.10;92.10;;;;;;4793722;29;20043;-79
2022/11/25 07:59:19;;;;;;;0.20;0.20;;;8.20;92.10;;;;;;4772663;30;20044;-79
2022/11/25 08:01:47;;;;;;;2.47;0.40;;;8.20;92.10;;;;;;4731915;30;20629;-77
2022/11/25 08:04:13;;;;;;;0.73;0.40;;;8.20;92.10;;;;;;4732088;30;20157;-78
2022/11/25 08:06:54;;;;;;;0.20;0.20;;;8.10;92.10;;;;;;4746204;30;20059;-79
2022/11/25 08:10:14;;;;;;;0.43;0.22;;;8.10;92.10;;;;;;4736085;30;20091;-79
2022/11/25 08:13:06;;;;;;;0.85;0.40;;;8.10;92.10;;;;;;4678848;30;20062;-80
2022/11/25 08:23:09;;;;;;;0.65;0.45;;;8.20;92.00;;;;;;4665711;30;20145;-79
2022/11/25 08:26:12;;;;;;;0.47;0.30;;;8.30;92.00;;;;;;4669272;30;20042;-78
2022/11/25 08:28:42;;;;;;;0.98;0.40;;;8.20;92.00;;;;;;4664668;30;21134;-77
2022/11/25 08:31:23;;;;;;;1.40;0.50;;;8.20;92.00;;;;;;4708659;30;20200;-77
2022/11/25 08:34:17;;;;;;;2.00;0.67;;;8.20;92.00;;;;;;4714680;30;20071;-78
2022/11/25 08:37:14;;;;;;;0.93;0.57;;;8.30;92.30;;;;;;4717799;30;20309;-78
2022/11/25 08:40:11;;;;;;;1.52;0.40;;;8.20;91.90;;;;;;4720284;30;20070;-79
2022/11/25 08:42:55;;;;;;;0.82;0.47;;;8.30;92.00;;;;;;4735565;30;20052;-78
2022/11/25 08:45:47;;;;;;;0.80;0.40;;;8.30;91.90;;;;;;4717189;30;20049;-79
2022/11/25 08:48:20;;;;;;;1.02;0.60;;;8.30;91.90;;;;;;4699111;30;20050;-78
2022/11/25 08:51:11;;;;;;;1.13;0.45;;;8.40;91.90;;;;;;4747342;30;20067;-78
2022/11/25 08:53:58;;;;;;;0.73;0.38;;;8.40;91.90;;;;;;4738657;30;20063;-78
2022/11/25 08:56:25;;;;;;;1.55;0.40;;;8.40;91.90;;;;;;4731514;30;20053;-77
2022/11/25 08:58:52;;;;;;;0.22;0.22;;;8.40;91.90;;;;;;4735900;30;20105;-77
2022/11/25 09:01:19;;;;;;;1.05;0.45;;;8.40;91.80;;;;;;4747401;30;20049;-78
2022/11/25 09:03:47;;;;;;;0.52;0.30;;;8.40;91.80;;;;;;4754083;29;20052;-77
2022/11/25 09:06:21;;;;;;;1.17;0.57;;;8.40;91.80;;;;;;4771300;29;20158;-78
2022/11/25 09:08:54;;;;;;;0.52;0.40;;;8.50;91.90;;;;;;4772553;29;20099;-77
2022/11/25 09:11:25;;;;;;;1.65;0.50;;;8.40;91.80;;;;;;4785786;29;20128;-78
2022/11/25 09:13:51;;;;;;;0.40;0.40;;;8.50;91.90;;;;;;4862211;29;20204;-77
2022/11/25 09:16:22;;;;;;;1.67;0.40;;;8.40;91.80;;;;;;4858369;29;20540;-77
2022/11/25 09:18:48;;;;;;;0.67;0.47;;;8.40;91.80;;;;;;4856863;29;20142;-77
2022/11/25 09:21:16;;;;;;;1.17;0.50;;;8.40;91.80;;;;;;4876512;29;20368;-77
2022/11/25 09:23:42;;;;;;;0.50;0.30;;;8.70;91.90;;;;;;4902124;28;20023;-76
2022/11/25 09:26:20;;;;;;;0.85;0.50;;;8.50;91.90;;;;;;4937434;28;20070;-77
2022/11/25 09:28:51;;;;;;;1.08;0.70;;;8.60;91.90;;;;;;4920940;28;20053;-77
2022/11/25 09:31:17;;;;;;;1.50;0.45;;;8.70;91.90;;;;;;4918660;28;20035;-77
2022/11/25 09:37:21;;;;;;;0.40;0.40;;;8.70;91.80;;;;;;4790728;29;20137;-77
2022/11/25 09:40:02;;;;;;;0.88;0.50;;;8.70;91.70;;;;;;4803382;29;20150;-78
2022/11/25 09:48:57;;;;;;;0.75;0.40;;;8.80;91.70;;;;;;4766202;30;20491;-78
2022/11/25 09:51:38;;;;;;;0.75;0.55;;;8.80;91.70;;;;;;4751031;30;20404;-77
2022/11/25 09:54:18;;;;;;;1.00;0.50;;;8.80;91.60;;;;;;4767119;30;20082;-77
2022/11/25 09:56:56;;;;;;;0.68;0.40;;;8.90;91.60;;;;;;4751333;30;20039;-77
2022/11/25 09:59:35;;;;;;;0.70;0.40;;;9.00;91.60;;;;;;4766192;30;20040;-78
2022/11/25 10:02:11;;;;;;;2.35;0.57;;;8.90;91.50;;;;;;4768932;30;20137;-78
2022/11/25 10:08:43;;;;;;;0.30;0.30;;;9.00;91.50;;;;;;4729256;30;20069;-78
2022/11/25 10:11:30;;;;;;;1.75;0.70;;;9.10;91.50;;;;;;4679224;30;20050;-77
2022/11/25 10:14:11;;;;;;;1.42;0.40;;;9.20;91.50;;;;;;4721959;30;20139;-77
2022/11/25 10:16:48;;;;;;;0.73;0.43;;;9.20;91.50;;;;;;4732914;30;20063;-78
2022/11/25 10:19:42;;;;;;;1.42;0.45;;;9.20;91.40;;;;;;4719607;30;20123;-78
2022/11/25 10:22:25;;;;;;;1.15;0.40;;;9.20;91.30;;;;;;4723682;30;20108;-78
2022/11/25 10:24:56;;;;;;;1.40;0.60;;;9.30;91.30;;;;;;4734052;30;20040;-78
2022/11/25 10:30:44;;;;;;;1.38;0.60;;;9.40;91.40;;;;;;4711949;30;20127;-77
2022/11/25 10:33:56;;;;;;;0.90;0.55;;;9.40;91.30;;;;;;4748101;30;20055;-78
2022/11/25 10:36:33;;;;;;;2.63;0.68;;;9.40;91.30;;;;;;4788776;29;20047;-78
2022/11/25 10:39:06;;;;;;;1.05;0.60;;;9.40;91.30;;;;;;4786511;29;20050;-77
2022/11/25 10:42:06;;;;;;;0.50;0.40;;;9.50;91.30;;;;;;4794744;29;20055;-79
2022/11/25 10:44:38;;;;;;;1.38;0.60;;;9.60;91.30;;;;;;4828894;29;20412;-78
2022/11/25 10:47:25;;;;;;;1.48;0.70;;;9.60;91.20;;;;;;4860262;29;20480;-79
2022/11/25 10:50:13;;;;;;;1.10;0.43;;;9.60;91.10;;;;;;4879041;29;20040;-79
2022/11/25 10:52:53;;;;;;;0.82;0.50;;;9.60;91.10;;;;;;4865612;29;20113;-78
2022/11/25 10:55:35;;;;;;;1.00;0.50;;;9.70;91.10;;;;;;4901305;29;20567;-79
2022/11/25 10:58:37;;;;;;;1.80;0.60;;;9.70;91.10;;;;;;4880903;29;20133;-77
2022/11/25 11:01:14;;;;;;;0.75;0.60;;;9.70;91.10;;;;;;4926556;29;20050;-78
2022/11/25 11:03:44;;;;;;;0.98;0.55;;;9.70;91.10;;;;;;4919228;29;20071;-77
2022/11/25 11:06:35;;;;;;;1.38;0.70;;;9.80;91.10;;;;;;4947669;29;20043;-77
2022/11/25 11:09:12;;;;;;;;;;;9.80;91.10;;;;;;4921660;29;20067;-78
2022/11/25 11:15:22;;;;;;;0.85;0.45;;;10.00;91.00;;;;;;4918572;28;20054;-76
2022/11/25 11:17:51;;;;;;;1.83;0.60;;;10.00;90.90;;;;;;4901158;29;20057;-77
2022/11/25 11:21:29;;;;;;;2.60;0.60;;;10.10;90.90;;;;;;4899089;29;20040;-78
2022/11/25 11:23:50;;;;;;;0.65;0.60;;;10.10;90.90;;;;;;4854481;29;20076;-77
2022/11/25 11:26:30;;;;;;;1.15;0.63;;;10.30;90.90;;;;;;4876932;29;20080;-77
2022/11/25 11:32:04;;;;;;;1.02;0.50;;;10.30;90.80;;;;;;4845927;29;20053;-77
2022/11/25 11:38:12;;;;;;;1.27;0.60;;;10.20;90.70;;;;;;4783755;29;20502;-77
2022/11/25 11:41:08;;;;;;;0.85;0.63;;;10.40;90.70;;;;;;4798091;29;20106;-77
2022/11/25 11:43:50;;;;;;;1.10;0.63;;;10.40;90.60;;;;;;4846998;29;20079;-76
2022/11/25 11:46:50;;;;;;;1.55;0.73;;;10.50;90.60;;;;;;4838171;29;20159;-77
2022/11/25 12:00:15;;;;;;;0.55;0.50;;;10.90;90.40;;;;;;4746444;30;20064;-79
2022/11/25 12:07:31;;;;;;;0.60;0.40;;;11.10;90.20;;;;;;4639296;30;20054;-79
2022/11/25 12:36:38;;;;;;;5.43;1.30;;;12.00;88.80;;;;;;5130973;27;20063;-80
2022/11/25 12:39:29;;;;;;;1.30;0.98;;;12.10;88.80;;;;;;5111064;27;20130;-79
2022/11/25 12:48:22;;;;;;;2.63;0.90;;;11.80;89.10;;;;;;5058089;28;20105;-78
2022/11/25 12:54:57;;;;;;;3.45;0.70;;;11.70;89.60;;;;;;5006008;28;20034;-78
2022/11/25 12:57:58;;;;;;;1.55;0.90;;;11.70;89.80;;;;;;4985839;28;20034;-78
2022/11/25 13:07:53;;;;;;;0.70;0.50;;;12.00;89.80;;;;;;4873298;29;20510;-78
2022/11/25 13:10:47;;;;;;;0.70;0.55;;;12.20;89.30;;;;;;4879491;29;20068;-78
2022/11/25 13:14:13;;;;;;;1.02;0.45;;;12.20;88.80;;;;;;4884628;29;20049;-77
2022/11/25 13:16:33;;;;;;;0.45;0.40;;;12.30;88.80;;;;;;4875603;29;20435;-77
2022/11/25 13:18:59;;;;;;;1.05;0.57;;;12.20;89.00;;;;;;4875036;29;20147;-78
2022/11/25 13:21:28;;;;;;;1.30;0.60;;;12.20;89.30;;;;;;4895803;29;20531;-78
2022/11/25 13:24:29;;;;;;;1.67;0.60;;;12.20;89.30;;;;;;4889179;29;20066;-81
2022/11/25 13:26:55;;;;;;;0.40;0.40;;;12.30;89.10;;;;;;4916015;29;20135;-77
2022/11/25 13:29:51;;;;;;;0.63;0.50;;;12.20;88.90;;;;;;4923576;29;20062;-78
2022/11/25 13:32:33;;;;;;;0.88;0.50;;;12.30;88.90;;;;;;4941952;29;20051;-77
2022/11/25 13:35:29;;;;;;;1.10;0.50;;;12.20;88.90;;;;;;4922563;29;20043;-76
2022/11/25 13:37:55;;;;;;;0.85;0.45;;;12.20;89.10;;;;;;4954118;29;20106;-76
2022/11/25 13:40:37;;;;;;;1.10;0.50;;;12.20;89.20;;;;;;4980236;28;20533;-77
2022/11/25 13:43:18;;;;;;;2.05;0.40;;;12.30;89.30;;;;;;4992926;28;20144;-77
2022/11/25 13:45:44;;;;;;;1.60;0.67;;;12.20;89.30;;;;;;5115704;28;20547;-77
2022/11/25 13:48:30;;;;;;;1.67;0.60;;;12.20;89.40;;;;;;5115198;28;20071;-76
2022/11/25 13:51:25;;;;;;;2.25;0.60;;;12.10;89.40;;;;;;5115141;28;20044;-77
2022/11/25 13:53:57;;;;;;;2.30;0.65;;;12.00;89.50;;;;;;5096215;28;20491;-76
2022/11/25 14:07:06;;;;;;;1.75;0.45;;;11.80;90.10;;;;;;4934866;29;20102;-78
2022/11/25 14:10:12;;;;;;;1.20;0.50;;;11.70;90.10;;;;;;4931912;28;20494;-77
2022/11/25 14:13:12;;;;;;;0.55;0.30;;;11.70;90.10;;;;;;4956590;28;20058;-77
2022/11/25 14:16:17;;;;;;;0.98;0.52;;;11.70;90.20;;;;;;4947029;28;20035;-79
2022/11/25 14:19:11;;;;;;;1.35;0.60;;;11.70;90.20;;;;;;4947859;28;20039;-76
2022/11/25 14:29:33;;;;;;;0.75;0.30;;;11.50;90.50;;;;;;4743120;30;20052;-77
2022/11/25 14:32:17;;;;;;;0.77;0.50;;;11.50;90.30;;;;;;4742217;30;20067;-79
2022/11/25 14:34:54;;;;;;;0.50;0.50;;;11.40;90.30;;;;;;4747898;30;20123;-78
2022/11/25 14:37:41;;;;;;;1.02;0.40;;;11.40;90.40;;;;;;4746666;30;20052;-78
2022/11/25 14:40:25;;;;;;;1.73;0.40;;;11.30;90.40;;;;;;4771496;30;20054;-77
2022/11/25 14:43:25;;;;;;;0.57;0.40;;;11.30;90.40;;;;;;4747464;30;20052;-78
2022/11/25 14:46:10;;;;;;;1.67;0.70;;;11.30;90.50;;;;;;4756608;30;20105;-77
2022/11/25 14:49:15;;;;;;;1.10;0.60;;;11.30;90.50;;;;;;4752699;30;20139;-77
2022/11/25 14:52:22;;;;;;;0.80;0.50;;;11.20;90.40;;;;;;4778205;30;20056;-77
2022/11/25 14:55:02;;;;;;;1.65;0.45;;;11.20;90.50;;;;;;4734513;30;20048;-78
2022/11/25 14:57:35;;;;;;;1.15;0.50;;;11.20;90.50;;;;;;4718358;30;20081;-77
2022/11/25 15:00:07;;;;;;;0.70;0.50;;;11.10;90.50;;;;;;4735847;30;20131;-76
2022/11/25 15:06:05;;;;;;;1.05;0.65;;;11.10;90.60;;;;;;4844211;29;20068;-76
2022/11/25 15:08:47;;;;;;;0.93;0.50;;;11.00;90.60;;;;;;4893630;29;20052;-77
2022/11/25 15:11:17;;;;;;;1.23;0.60;;;11.00;90.60;;;;;;4939981;29;20071;-77
2022/11/25 15:13:56;;;;;;;1.15;0.52;;;10.90;90.60;;;;;;4936827;28;20663;-76
2022/11/25 15:16:44;;;;;;;0.50;0.40;;;10.80;90.60;;;;;;4988201;28;20039;-77
2022/11/25 15:19:20;;;;;;;0.45;0.45;;;10.80;90.70;;;;;;4971875;28;20047;-77
2022/11/25 15:21:55;;;;;;;0.70;0.50;;;10.60;90.70;;;;;;4969014;29;20055;-77
2022/11/25 15:24:24;;;;;;;0.40;0.35;;;10.60;90.80;;;;;;4944712;29;20051;-77
2022/11/25 15:26:55;;;;;;;2.00;0.50;;;10.50;90.90;;;;;;4957429;29;20514;-76
2022/11/25 15:29:21;;;;;;;0.45;0.45;;;10.50;90.90;;;;;;4958324;29;20131;-77
2022/11/25 15:31:50;;;;;;;0.80;0.45;;;10.40;91.00;;;;;;5014097;28;20041;-76